Time;durP1;ratioP1;P1;durP2;ratioP2;P2;SDS_P1;SDS_P2;PMS_P1;PMS_P2;Temp;Humidity;BMP_temperature;BMP_pressure;BME280_temperature;BME280_humidity;BME280_pressure;Samples;Min_cycle;Max_cycle;Signal;HPM_P1;HPM_P2
2023/01/20 00:01:26;;;;;;;7.13;3.25;;;-7.00;99.90;;;;;;4973100;28;20179;-59
2023/01/20 00:03:54;;;;;;;14.45;3.30;;;-6.90;99.90;;;;;;4966381;28;20704;-61
2023/01/20 00:06:22;;;;;;;7.05;3.45;;;-6.90;99.90;;;;;;4971165;28;20404;-61
2023/01/20 00:08:51;;;;;;;6.93;3.20;;;-6.90;99.90;;;;;;4964120;28;20381;-61
2023/01/20 00:11:18;;;;;;;5.07;3.08;;;-6.90;99.90;;;;;;4967581;28;20101;-61
2023/01/20 00:13:45;;;;;;;4.95;3.30;;;-6.90;99.90;;;;;;4969308;28;20050;-60
2023/01/20 00:16:12;;;;;;;8.80;3.92;;;-7.00;99.90;;;;;;4967700;28;20042;-61
2023/01/20 00:18:39;;;;;;;4.93;3.50;;;-7.00;99.90;;;;;;4967403;28;20090;-58
2023/01/20 00:21:09;;;;;;;7.45;3.45;;;-7.00;99.90;;;;;;4950432;28;20129;-59
2023/01/20 00:23:37;;;;;;;9.98;3.92;;;-7.00;99.90;;;;;;4963895;28;20699;-63
2023/01/20 00:26:12;;;;;;;5.88;3.70;;;-7.00;99.90;;;;;;4965754;28;20035;-60
2023/01/20 00:28:39;;;;;;;7.90;3.95;;;-7.00;99.90;;;;;;4965567;28;20124;-59
2023/01/20 00:31:35;;;;;;;6.43;3.78;;;-7.00;99.90;;;;;;4967546;28;20080;-59
2023/01/20 00:34:02;;;;;;;9.00;3.95;;;-7.00;99.90;;;;;;4958281;28;20149;-58
2023/01/20 00:36:31;;;;;;;10.38;3.83;;;-7.00;99.90;;;;;;4965245;28;20038;-60
2023/01/20 00:38:59;;;;;;;12.13;4.75;;;-7.00;99.90;;;;;;4965628;28;20414;-59
2023/01/20 00:41:25;;;;;;;10.13;4.38;;;-7.00;99.90;;;;;;4963641;28;20044;-61
2023/01/20 00:43:52;;;;;;;6.28;3.60;;;-7.00;99.90;;;;;;4965119;28;20516;-59
2023/01/20 00:46:21;;;;;;;8.52;4.43;;;-7.00;99.90;;;;;;4966912;28;20153;-61
2023/01/20 00:48:48;;;;;;;8.73;3.90;;;-7.00;99.90;;;;;;4963076;28;20222;-59
2023/01/20 00:51:15;;;;;;;7.55;3.13;;;-6.90;99.90;;;;;;4979017;28;20159;-61
2023/01/20 00:53:42;;;;;;;9.65;4.38;;;-6.90;99.90;;;;;;4963025;28;20053;-60
2023/01/20 00:56:08;;;;;;;5.22;3.08;;;-6.90;99.90;;;;;;4964971;28;20447;-58
2023/01/20 00:58:35;;;;;;;8.07;3.17;;;-6.90;99.90;;;;;;4964650;28;20049;-60
2023/01/20 01:01:02;;;;;;;4.53;2.53;;;-6.90;99.90;;;;;;4966864;28;20053;-60
2023/01/20 01:03:29;;;;;;;4.03;2.75;;;-6.90;99.90;;;;;;4964037;28;20077;-59
2023/01/20 01:06:10;;;;;;;5.88;3.05;;;-6.90;99.90;;;;;;4964096;28;20053;-59
2023/01/20 01:08:37;;;;;;;11.98;3.33;;;-6.90;99.90;;;;;;4966153;28;20420;-60
2023/01/20 01:11:04;;;;;;;4.75;2.97;;;-6.90;99.90;;;;;;4963814;28;20073;-59
2023/01/20 01:13:32;;;;;;;12.32;3.75;;;-6.90;99.90;;;;;;4965930;28;20278;-60
2023/01/20 01:15:58;;;;;;;8.02;3.35;;;-6.90;99.90;;;;;;4963719;28;20686;-60
2023/01/20 01:18:26;;;;;;;7.15;3.83;;;-6.90;99.90;;;;;;4962730;28;20245;-61
2023/01/20 01:20:52;;;;;;;10.43;3.92;;;-6.80;99.90;;;;;;4963867;28;20135;-58
2023/01/20 01:23:19;;;;;;;7.80;3.78;;;-6.80;99.90;;;;;;4963986;28;20129;-60
2023/01/20 01:25:46;;;;;;;8.02;4.32;;;-6.80;99.90;;;;;;4964723;28;20057;-60
2023/01/20 01:28:13;;;;;;;8.85;4.25;;;-6.80;99.90;;;;;;4961992;28;20283;-59
2023/01/20 01:30:39;;;;;;;8.43;3.33;;;-6.80;99.90;;;;;;4970246;28;20042;-60
2023/01/20 01:33:06;;;;;;;9.35;4.07;;;-6.70;99.90;;;;;;4965135;28;20544;-59
2023/01/20 01:35:33;;;;;;;4.30;2.97;;;-6.70;99.90;;;;;;4961936;28;20046;-59
2023/01/20 01:38:00;;;;;;;7.93;4.25;;;-6.70;99.90;;;;;;4964640;28;20536;-61
2023/01/20 01:40:26;;;;;;;7.40;4.45;;;-6.70;99.90;;;;;;4963488;28;20514;-61
2023/01/20 01:42:53;;;;;;;11.52;4.32;;;-6.70;99.90;;;;;;4966080;28;20068;-62
2023/01/20 01:45:23;;;;;;;6.57;3.92;;;-6.60;99.90;;;;;;4963867;28;20042;-58
2023/01/20 01:47:56;;;;;;;9.20;4.35;;;-6.60;99.90;;;;;;4963129;28;20624;-59
2023/01/20 01:50:45;;;;;;;10.00;5.00;;;-6.60;99.90;;;;;;4964305;28;20047;-60
2023/01/20 01:53:13;;;;;;;8.65;4.85;;;-6.60;99.90;;;;;;4966638;28;20105;-59
2023/01/20 01:55:44;;;;;;;8.88;4.40;;;-6.50;99.90;;;;;;4966236;28;20119;-59
2023/01/20 01:58:15;;;;;;;9.50;3.47;;;-6.50;99.90;;;;;;4965380;28;20573;-60
2023/01/20 02:00:43;;;;;;;6.20;3.75;;;-6.50;99.90;;;;;;4964000;28;20137;-60
2023/01/20 02:03:11;;;;;;;7.18;4.20;;;-6.50;99.90;;;;;;4965079;28;20057;-62
2023/01/20 02:05:38;;;;;;;8.55;3.65;;;-6.50;99.90;;;;;;4967778;28;20038;-60
2023/01/20 02:08:07;;;;;;;7.93;3.20;;;-6.60;99.90;;;;;;4963000;28;20049;-59
2023/01/20 02:10:34;;;;;;;8.25;3.25;;;-6.60;99.90;;;;;;4960063;28;20085;-59
2023/01/20 02:13:01;;;;;;;6.80;3.45;;;-6.60;99.90;;;;;;4963753;28;20303;-60
2023/01/20 02:15:39;;;;;;;5.88;3.10;;;-6.70;99.90;;;;;;4978698;28;20133;-59
2023/01/20 02:18:57;;;;;;;5.55;2.80;;;-6.70;99.90;;;;;;4962662;28;20484;-58
2023/01/20 02:21:47;;;;;;;5.35;2.88;;;-6.80;99.90;;;;;;4963006;28;20057;-59
2023/01/20 02:24:26;;;;;;;6.43;3.15;;;-6.80;99.90;;;;;;4962043;28;20046;-60
2023/01/20 02:27:29;;;;;;;7.30;2.97;;;-6.90;99.90;;;;;;4964812;28;20779;-60
2023/01/20 02:30:49;;;;;;;6.25;2.95;;;-6.90;99.90;;;;;;4962824;28;20030;-59
2023/01/20 02:33:27;;;;;;;4.10;2.78;;;-6.90;99.90;;;;;;4960358;28;20639;-58
2023/01/20 02:36:04;;;;;;;5.35;2.58;;;-6.90;99.90;;;;;;4963601;28;20388;-59
2023/01/20 02:38:38;;;;;;;7.00;2.47;;;-6.90;99.90;;;;;;4962651;28;20050;-58
2023/01/20 02:41:38;;;;;;;6.95;3.45;;;-7.00;99.90;;;;;;4964489;28;20054;-60
2023/01/20 02:44:16;;;;;;;7.45;3.53;;;-7.00;99.90;;;;;;4963941;28;20128;-58
2023/01/20 02:47:06;;;;;;;6.32;3.28;;;-7.00;99.90;;;;;;4958686;28;20049;-58
2023/01/20 02:49:50;;;;;;;5.35;3.13;;;-7.00;99.90;;;;;;4961986;28;20452;-59
2023/01/20 02:52:26;;;;;;;8.15;3.47;;;-7.10;99.90;;;;;;4959790;28;20651;-59
2023/01/20 02:54:58;;;;;;;10.43;3.33;;;-7.00;99.90;;;;;;4962599;28;20120;-59
2023/01/20 02:57:29;;;;;;;12.43;3.60;;;-7.00;99.90;;;;;;4965037;28;20062;-59
2023/01/20 03:00:06;;;;;;;7.43;3.38;;;-7.00;99.90;;;;;;4962604;28;20398;-61
2023/01/20 03:02:36;;;;;;;7.25;4.43;;;-7.00;99.90;;;;;;4962164;28;20124;-59
2023/01/20 03:05:11;;;;;;;10.18;4.07;;;-7.00;99.90;;;;;;4963466;28;20373;-59
2023/01/20 03:07:42;;;;;;;5.30;3.42;;;-7.00;99.90;;;;;;4960127;28;20136;-61
2023/01/20 03:10:13;;;;;;;4.70;3.20;;;-7.00;99.90;;;;;;4960317;28;20591;-60
2023/01/20 03:13:15;;;;;;;10.15;3.83;;;-7.00;99.90;;;;;;4963534;28;20305;-61
2023/01/20 03:15:57;;;;;;;6.90;3.03;;;-7.00;99.90;;;;;;4963479;28;20316;-59
2023/01/20 03:18:25;;;;;;;4.53;2.85;;;-7.00;99.90;;;;;;4961436;28;20611;-60
2023/01/20 03:20:52;;;;;;;6.97;3.35;;;-7.10;99.90;;;;;;4965582;28;20140;-59
2023/01/20 03:23:19;;;;;;;5.97;3.17;;;-7.10;99.90;;;;;;4970507;28;20305;-59
2023/01/20 03:25:48;;;;;;;3.78;2.63;;;-7.10;99.90;;;;;;4966815;28;20042;-61
2023/01/20 03:28:14;;;;;;;5.60;3.38;;;-7.10;99.90;;;;;;4963091;28;20046;-59
2023/01/20 03:30:41;;;;;;;7.03;3.58;;;-7.10;99.90;;;;;;4963115;28;20425;-59
2023/01/20 03:33:10;;;;;;;7.15;3.75;;;-7.10;99.90;;;;;;4956760;28;20034;-60
2023/01/20 03:35:38;;;;;;;5.07;3.55;;;-7.10;99.90;;;;;;4967578;28;20081;-60
2023/01/20 03:38:05;;;;;;;9.60;4.10;;;-7.10;99.90;;;;;;4959018;28;20382;-59
2023/01/20 03:40:40;;;;;;;5.65;3.35;;;-7.00;99.90;;;;;;4965057;28;20517;-60
2023/01/20 03:43:19;;;;;;;8.55;4.22;;;-7.00;99.90;;;;;;4959973;28;20345;-59
2023/01/20 03:46:04;;;;;;;8.35;4.85;;;-7.00;99.90;;;;;;4963944;28;20096;-58
2023/01/20 03:48:39;;;;;;;7.47;4.22;;;-7.00;99.90;;;;;;4964646;28;20814;-61
2023/01/20 03:51:19;;;;;;;9.55;4.57;;;-6.90;99.90;;;;;;4963343;28;20074;-60
2023/01/20 03:53:53;;;;;;;7.40;4.22;;;-6.90;99.90;;;;;;4964191;28;20046;-59
2023/01/20 03:56:27;;;;;;;9.45;4.50;;;-6.90;99.90;;;;;;4964785;28;20095;-59
2023/01/20 03:58:58;;;;;;;10.65;4.60;;;-6.90;99.90;;;;;;4964744;28;20321;-59
2023/01/20 04:01:33;;;;;;;9.00;4.47;;;-6.90;99.90;;;;;;4964856;28;20152;-60
2023/01/20 04:04:01;;;;;;;6.63;3.75;;;-6.80;99.90;;;;;;4965170;28;20231;-59
2023/01/20 04:06:30;;;;;;;6.38;3.97;;;-6.80;99.90;;;;;;4966826;28;20577;-61
2023/01/20 04:09:02;;;;;;;8.00;3.90;;;-6.80;99.90;;;;;;4966376;28;20429;-60
2023/01/20 04:11:29;;;;;;;9.70;3.55;;;-6.80;99.90;;;;;;4966999;28;20098;-60
2023/01/20 04:13:56;;;;;;;12.93;4.32;;;-6.70;99.90;;;;;;4964264;28;20524;-61
2023/01/20 04:16:25;;;;;;;10.85;4.32;;;-6.70;99.90;;;;;;4963760;28;20162;-59
2023/01/20 04:18:52;;;;;;;10.85;3.95;;;-6.70;99.90;;;;;;4963961;28;20125;-58
2023/01/20 04:21:30;;;;;;;9.25;4.40;;;-6.60;99.90;;;;;;4964111;28;20057;-58
2023/01/20 04:24:13;;;;;;;7.22;4.05;;;-6.60;99.90;;;;;;4965432;28;20092;-61
2023/01/20 04:26:40;;;;;;;11.15;4.70;;;-6.50;99.90;;;;;;4966203;28;20898;-58
2023/01/20 04:29:07;;;;;;;8.48;3.70;;;-6.50;99.90;;;;;;4965329;28;20337;-59
2023/01/20 04:31:37;;;;;;;8.40;4.22;;;-6.50;99.90;;;;;;4962774;28;20058;-59
2023/01/20 04:34:06;;;;;;;7.22;3.67;;;-6.40;99.90;;;;;;4966330;28;20045;-58
2023/01/20 04:36:32;;;;;;;7.18;3.70;;;-6.40;99.90;;;;;;4971697;28;20038;-58
2023/01/20 04:38:59;;;;;;;7.55;3.72;;;-6.40;99.90;;;;;;4962561;28;20184;-60
2023/01/20 04:41:26;;;;;;;7.75;4.15;;;-6.40;99.90;;;;;;4964276;28;20046;-58
2023/01/20 04:43:52;;;;;;;9.63;3.95;;;-6.40;99.90;;;;;;4964001;28;20581;-61
2023/01/20 04:46:19;;;;;;;9.43;4.15;;;-6.40;99.90;;;;;;4967214;28;20319;-60
2023/01/20 04:48:46;;;;;;;8.77;4.60;;;-6.40;99.90;;;;;;4964705;28;20276;-59
2023/01/20 04:51:14;;;;;;;5.30;3.25;;;-6.40;99.90;;;;;;4967295;28;20447;-59
2023/01/20 04:53:40;;;;;;;7.75;4.05;;;-6.40;99.90;;;;;;4962043;28;20749;-60
2023/01/20 04:56:12;;;;;;;8.35;3.97;;;-6.40;99.90;;;;;;4965394;28;20043;-60
2023/01/20 04:58:39;;;;;;;7.43;4.93;;;-6.40;99.90;;;;;;4963453;28;20348;-59
2023/01/20 05:01:06;;;;;;;7.63;3.90;;;-6.40;99.90;;;;;;4964726;28;20069;-60
2023/01/20 05:03:33;;;;;;;8.82;3.65;;;-6.40;99.90;;;;;;4961997;28;20050;-60
2023/01/20 05:06:00;;;;;;;5.75;3.35;;;-6.40;99.90;;;;;;4963720;28;20132;-59
2023/01/20 05:08:27;;;;;;;11.85;3.45;;;-6.40;99.90;;;;;;4960786;28;20504;-58
2023/01/20 05:10:54;;;;;;;7.50;3.92;;;-6.30;99.90;;;;;;4966051;28;20064;-60
2023/01/20 05:13:20;;;;;;;7.38;3.70;;;-6.30;99.90;;;;;;4964288;28;20397;-58
2023/01/20 05:15:47;;;;;;;6.43;3.70;;;-6.30;99.90;;;;;;4962996;28;20140;-62
2023/01/20 05:18:14;;;;;;;6.65;3.38;;;-6.20;99.90;;;;;;4963648;28;20042;-60
2023/01/20 05:20:44;;;;;;;7.88;4.13;;;-6.20;99.90;;;;;;4965392;28;20410;-62
2023/01/20 05:23:11;;;;;;;6.38;3.80;;;-6.20;99.90;;;;;;4961311;28;20137;-59
2023/01/20 05:25:38;;;;;;;6.07;2.80;;;-6.10;99.90;;;;;;4965803;28;20132;-59
2023/01/20 05:28:05;;;;;;;7.22;3.63;;;-6.10;99.90;;;;;;4967449;28;20388;-60
2023/01/20 05:30:33;;;;;;;10.07;4.35;;;-6.10;99.90;;;;;;4967534;28;20050;-59
2023/01/20 05:33:00;;;;;;;10.55;4.47;;;-6.10;99.90;;;;;;4966001;28;20456;-60
2023/01/20 05:35:26;;;;;;;9.25;3.33;;;-6.00;99.90;;;;;;4964198;28;20210;-60
2023/01/20 05:37:54;;;;;;;9.15;4.28;;;-6.00;99.90;;;;;;4962262;28;20151;-62
2023/01/20 05:40:21;;;;;;;7.93;4.32;;;-5.90;99.90;;;;;;4963164;28;20338;-59
2023/01/20 05:42:48;;;;;;;5.30;3.22;;;-5.90;99.90;;;;;;4963702;28;20552;-60
2023/01/20 05:45:15;;;;;;;8.73;3.67;;;-5.90;99.90;;;;;;4965529;28;20048;-59
2023/01/20 05:47:43;;;;;;;7.40;3.58;;;-5.90;99.90;;;;;;4965717;28;20354;-60
2023/01/20 05:50:10;;;;;;;4.95;3.20;;;-5.80;99.90;;;;;;4970168;28;20496;-61
2023/01/20 05:52:37;;;;;;;6.57;3.60;;;-5.70;99.90;;;;;;4965547;28;20121;-60
2023/01/20 05:55:04;;;;;;;5.53;3.03;;;-5.70;99.90;;;;;;4968000;28;20576;-58
2023/01/20 05:57:31;;;;;;;6.40;3.50;;;-5.70;99.90;;;;;;4963375;28;20346;-59
2023/01/20 05:59:58;;;;;;;6.30;3.33;;;-5.60;99.90;;;;;;4964315;28;20504;-59
2023/01/20 06:02:25;;;;;;;5.50;2.97;;;-5.60;99.90;;;;;;4964334;28;20159;-60
2023/01/20 06:04:51;;;;;;;6.38;3.13;;;-5.60;99.90;;;;;;4966946;28;20339;-59
2023/01/20 06:07:18;;;;;;;7.80;3.28;;;-5.60;99.90;;;;;;4964361;28;20197;-59
2023/01/20 06:09:45;;;;;;;8.55;3.45;;;-5.60;99.90;;;;;;4968713;28;20599;-58
2023/01/20 06:12:12;;;;;;;6.47;3.80;;;-5.60;99.90;;;;;;4964203;28;20117;-59
2023/01/20 06:14:38;;;;;;;14.00;3.40;;;-5.50;99.90;;;;;;4962228;28;20133;-60
2023/01/20 06:17:05;;;;;;;6.68;3.28;;;-5.50;99.90;;;;;;4965186;28;20038;-59
2023/01/20 06:19:32;;;;;;;5.35;3.45;;;-5.50;99.90;;;;;;4963851;28;20301;-61
2023/01/20 06:21:59;;;;;;;8.10;5.07;;;-5.50;99.90;;;;;;4963534;28;20128;-60
2023/01/20 06:24:26;;;;;;;6.28;3.80;;;-5.40;99.90;;;;;;4964517;28;20045;-59
2023/01/20 06:26:52;;;;;;;8.63;4.45;;;-5.40;99.90;;;;;;4967151;28;20041;-60
2023/01/20 06:29:19;;;;;;;9.45;4.45;;;-5.40;99.90;;;;;;4963215;28;20088;-59
2023/01/20 06:31:46;;;;;;;8.25;3.95;;;-5.40;99.90;;;;;;4962780;28;20038;-60
2023/01/20 06:34:13;;;;;;;6.63;3.63;;;-5.40;99.90;;;;;;4963863;28;20042;-62
2023/01/20 06:36:40;;;;;;;8.02;3.70;;;-5.40;99.90;;;;;;4963153;28;20968;-60
2023/01/20 06:39:07;;;;;;;5.97;4.10;;;-5.40;99.90;;;;;;4963107;28;20344;-61
2023/01/20 06:41:34;;;;;;;14.63;4.55;;;-5.40;99.90;;;;;;4962809;28;20046;-58
2023/01/20 06:44:01;;;;;;;6.90;3.92;;;-5.40;99.90;;;;;;4962830;28;20160;-59
2023/01/20 06:46:28;;;;;;;7.82;3.90;;;-5.30;99.90;;;;;;4963774;28;20052;-59
2023/01/20 06:48:59;;;;;;;9.00;3.83;;;-5.30;99.90;;;;;;4965652;28;20533;-61
2023/01/20 06:51:28;;;;;;;8.15;4.13;;;-5.30;99.90;;;;;;4962672;28;20070;-59
2023/01/20 06:53:56;;;;;;;7.20;3.75;;;-5.30;99.90;;;;;;4963206;28;20294;-59
2023/01/20 06:56:23;;;;;;;7.75;3.83;;;-5.30;99.90;;;;;;4979604;28;20136;-60
2023/01/20 06:58:50;;;;;;;6.72;3.42;;;-5.30;99.90;;;;;;4963333;28;20507;-59
2023/01/20 07:01:22;;;;;;;6.75;3.53;;;-5.30;99.90;;;;;;4966778;28;20077;-62
2023/01/20 07:03:49;;;;;;;6.05;4.05;;;-5.30;99.90;;;;;;4964752;28;20053;-60
2023/01/20 07:06:34;;;;;;;6.85;4.38;;;-5.20;99.90;;;;;;4948026;28;20060;-60
2023/01/20 07:09:01;;;;;;;9.75;4.18;;;-5.20;99.90;;;;;;4962544;28;20050;-61
2023/01/20 07:11:30;;;;;;;8.15;4.38;;;-5.30;99.90;;;;;;4962625;28;20117;-59
2023/01/20 07:13:57;;;;;;;6.88;3.53;;;-5.20;99.90;;;;;;4961762;28;20058;-59
2023/01/20 07:16:23;;;;;;;7.65;4.38;;;-5.20;99.90;;;;;;4968806;28;20046;-59
2023/01/20 07:18:51;;;;;;;11.05;5.70;;;-5.20;99.90;;;;;;4963587;28;20038;-60
2023/01/20 07:21:18;;;;;;;9.95;4.50;;;-5.20;99.90;;;;;;4966450;28;20038;-60
2023/01/20 07:23:46;;;;;;;7.10;4.57;;;-5.20;99.90;;;;;;4963394;28;20057;-59
2023/01/20 07:26:16;;;;;;;11.20;5.47;;;-5.20;99.90;;;;;;4975625;28;20049;-59
2023/01/20 07:28:43;;;;;;;10.02;4.93;;;-5.20;99.90;;;;;;4962740;28;20441;-59
2023/01/20 07:31:19;;;;;;;8.98;4.68;;;-5.10;99.90;;;;;;4964599;28;20042;-59
2023/01/20 07:33:46;;;;;;;9.05;4.55;;;-5.10;99.90;;;;;;4961644;28;20111;-59
2023/01/20 07:36:14;;;;;;;8.30;4.63;;;-5.10;99.90;;;;;;4964744;28;20124;-58
2023/01/20 07:38:41;;;;;;;13.82;5.00;;;-5.10;99.90;;;;;;4963390;28;20042;-52
2023/01/20 07:41:14;;;;;;;8.98;3.90;;;-5.00;99.90;;;;;;4963953;28;20048;-51
2023/01/20 07:43:51;;;;;;;8.20;4.75;;;-5.00;99.90;;;;;;4964013;28;20054;-51
2023/01/20 07:46:19;;;;;;;8.43;4.30;;;-4.90;99.90;;;;;;4963928;28;20046;-51
2023/01/20 07:48:45;;;;;;;9.35;5.00;;;-4.90;99.90;;;;;;4964307;28;20047;-51
2023/01/20 07:51:14;;;;;;;10.95;4.85;;;-4.90;99.90;;;;;;4964327;28;20446;-52
2023/01/20 07:53:46;;;;;;;9.95;4.95;;;-4.80;99.90;;;;;;4961993;28;20034;-51
2023/01/20 07:56:18;;;;;;;10.82;5.90;;;-4.80;99.90;;;;;;4963651;28;20798;-52
2023/01/20 07:58:46;;;;;;;11.80;5.32;;;-4.80;99.90;;;;;;4961826;28;20400;-49
2023/01/20 08:01:33;;;;;;;9.00;4.70;;;-4.80;99.90;;;;;;4960826;28;20422;-53
2023/01/20 08:04:00;;;;;;;16.20;5.35;;;-4.80;99.90;;;;;;4963661;28;20508;-52
2023/01/20 08:06:28;;;;;;;11.05;5.85;;;-4.70;99.90;;;;;;4966114;28;20042;-52
2023/01/20 08:08:58;;;;;;;14.02;5.97;;;-4.70;99.90;;;;;;4966030;28;20042;-55
2023/01/20 08:11:24;;;;;;;12.43;6.80;;;-4.70;99.90;;;;;;4968295;28;20460;-51
2023/01/20 08:13:52;;;;;;;9.23;5.72;;;-4.60;99.90;;;;;;4965646;28;20539;-53
2023/01/20 08:16:19;;;;;;;8.07;5.13;;;-4.60;99.90;;;;;;4966440;28;20046;-53
2023/01/20 08:18:47;;;;;;;11.70;6.07;;;-4.50;99.90;;;;;;4968371;28;20050;-53
2023/01/20 08:21:32;;;;;;;11.75;6.57;;;-4.50;99.90;;;;;;4966223;28;20471;-53
2023/01/20 08:24:01;;;;;;;9.85;5.65;;;-4.40;99.90;;;;;;4965088;28;20474;-51
2023/01/20 08:26:29;;;;;;;12.02;7.03;;;-4.40;99.90;;;;;;4966504;28;20092;-53
2023/01/20 08:29:05;;;;;;;14.13;7.35;;;-4.30;99.90;;;;;;4964147;28;20069;-52
2023/01/20 08:31:33;;;;;;;11.15;6.53;;;-4.30;99.90;;;;;;4966069;28;20046;-52
2023/01/20 08:34:00;;;;;;;13.90;7.80;;;-4.30;99.90;;;;;;4965183;28;20049;-52
2023/01/20 08:36:29;;;;;;;12.48;7.07;;;-4.30;99.90;;;;;;4965369;28;20488;-54
2023/01/20 08:38:58;;;;;;;19.67;8.00;;;-4.20;99.90;;;;;;4965019;28;20049;-51
2023/01/20 08:41:27;;;;;;;14.88;8.40;;;-4.10;99.90;;;;;;4966678;28;20255;-51
2023/01/20 08:43:57;;;;;;;14.07;8.05;;;-4.10;99.90;;;;;;4968952;28;20400;-52
2023/01/20 08:46:24;;;;;;;13.05;6.85;;;-4.00;99.90;;;;;;4965837;28;20496;-51
2023/01/20 08:48:51;;;;;;;20.90;10.32;;;-3.90;99.90;;;;;;4965740;28;20493;-52
2023/01/20 08:51:24;;;;;;;20.35;9.85;;;-3.80;99.90;;;;;;4963301;28;20029;-52
2023/01/20 08:53:51;;;;;;;21.08;9.70;;;-3.80;99.90;;;;;;4943935;28;20054;-53
2023/01/20 08:56:18;;;;;;;17.77;10.20;;;-3.70;99.90;;;;;;4944140;28;20509;-52
2023/01/20 08:58:45;;;;;;;21.40;9.80;;;-3.70;99.90;;;;;;4942077;28;20475;-53
2023/01/20 09:01:14;;;;;;;16.35;9.77;;;-3.60;99.90;;;;;;4948342;28;20050;-52
2023/01/20 09:03:40;;;;;;;19.38;9.82;;;-3.60;99.90;;;;;;4945587;28;20441;-53
2023/01/20 09:06:18;;;;;;;;;;;-3.60;99.90;;;;;;4948863;28;20077;-58
2023/01/20 09:08:45;;;;;;;;;;;-3.50;99.90;;;;;;4947068;28;19922;-52
2023/01/20 09:11:19;;;;;;;25.40;10.82;;;-3.50;99.90;;;;;;4947557;28;19925;-51
2023/01/20 09:13:46;;;;;;;16.38;8.98;;;-3.40;99.90;;;;;;4946297;28;20057;-55
2023/01/20 09:16:14;;;;;;;23.70;9.73;;;-3.30;99.90;;;;;;4943020;28;20436;-52
2023/01/20 09:18:42;;;;;;;16.95;8.50;;;-3.30;99.90;;;;;;4944191;28;20673;-54
2023/01/20 09:21:10;;;;;;;19.05;9.75;;;-3.20;99.90;;;;;;4946505;28;20161;-52
2023/01/20 09:23:39;;;;;;;18.88;10.90;;;-3.10;99.90;;;;;;4944414;28;20048;-55
2023/01/20 09:26:07;;;;;;;21.42;9.50;;;-3.00;99.90;;;;;;4945890;28;20042;-52
2023/01/20 09:28:34;;;;;;;16.15;8.75;;;-2.90;99.90;;;;;;4945685;28;20043;-52
2023/01/20 09:31:04;;;;;;;17.70;10.20;;;-2.90;99.90;;;;;;4945089;28;20039;-48
2023/01/20 09:33:34;;;;;;;17.35;9.35;;;-2.80;99.90;;;;;;4947533;28;20030;-49
2023/01/20 09:36:03;;;;;;;16.55;8.68;;;-2.80;99.90;;;;;;4946625;28;20069;-56
2023/01/20 09:44:41;;;;;;;19.45;9.70;;;-2.60;99.90;;;;;;4944340;28;20074;-53
2023/01/20 09:47:29;;;;;;;16.52;9.23;;;-2.50;99.90;;;;;;4946346;28;20206;-52
2023/01/20 09:53:31;;;;;;;18.38;10.65;;;-2.40;99.90;;;;;;4946123;28;20038;-53
2023/01/20 09:56:15;;;;;;;18.92;9.40;;;-2.30;99.90;;;;;;4928014;28;20461;-54
2023/01/20 09:58:53;;;;;;;20.27;10.43;;;-2.20;99.90;;;;;;4942075;28;20184;-50
2023/01/20 10:01:38;;;;;;;23.35;12.38;;;-2.20;99.90;;;;;;4946862;28;20590;-52
2023/01/20 10:04:10;;;;;;;23.75;11.63;;;-2.10;99.90;;;;;;4944930;28;20056;-53
2023/01/20 10:06:46;;;;;;;20.52;11.25;;;-2.10;99.90;;;;;;4946481;28;20460;-53
2023/01/20 10:09:21;;;;;;;24.13;11.07;;;-2.00;99.90;;;;;;4944776;28;20038;-54
2023/01/20 10:11:52;;;;;;;21.75;11.27;;;-2.00;99.90;;;;;;4943853;28;20408;-51
2023/01/20 10:14:37;;;;;;;18.95;11.05;;;-1.90;99.90;;;;;;4951846;28;20074;-51
2023/01/20 10:17:15;;;;;;;19.98;10.05;;;-1.80;99.90;;;;;;4945286;28;20043;-50
2023/01/20 10:19:45;;;;;;;22.83;11.30;;;-1.80;99.90;;;;;;4945245;28;20539;-52
2023/01/20 10:22:21;;;;;;;19.05;10.55;;;-1.70;99.90;;;;;;4946440;28;20042;-51
2023/01/20 10:25:05;;;;;;;19.30;10.10;;;-1.70;99.90;;;;;;4944064;28;20064;-51
2023/01/20 10:27:35;;;;;;;21.02;12.45;;;-1.70;99.90;;;;;;4941644;28;20055;-51
2023/01/20 10:30:09;;;;;;;24.30;12.07;;;-1.60;99.90;;;;;;4945378;28;20576;-51
2023/01/20 10:32:40;;;;;;;28.17;16.27;;;-1.60;99.90;;;;;;4944937;28;20073;-51
2023/01/20 10:35:21;;;;;;;28.98;16.00;;;-1.60;99.90;;;;;;4949208;28;20404;-52
2023/01/20 10:37:50;;;;;;;28.88;15.73;;;-1.50;99.90;;;;;;4945031;28;21001;-53
2023/01/20 10:40:39;;;;;;;33.33;16.77;;;-1.50;99.90;;;;;;4943881;28;20038;-52
2023/01/20 10:43:15;;;;;;;31.77;17.02;;;-1.50;99.90;;;;;;4944113;28;20066;-50
2023/01/20 10:45:41;;;;;;;33.78;16.25;;;-1.50;99.90;;;;;;4947072;28;20054;-52
2023/01/20 10:48:39;;;;;;;30.85;17.15;;;-1.60;99.90;;;;;;4945153;28;20046;-51
2023/01/20 10:51:36;;;;;;;40.47;16.75;;;-1.50;99.90;;;;;;4942603;28;20034;-50
2023/01/20 10:54:24;;;;;;;39.13;18.05;;;-1.50;99.90;;;;;;4943483;28;20038;-50
2023/01/20 10:56:57;;;;;;;26.90;16.50;;;-1.50;99.90;;;;;;4944270;28;20058;-50
2023/01/20 10:59:34;;;;;;;31.50;16.80;;;-1.50;99.90;;;;;;4949393;28;20042;-49
2023/01/20 11:02:20;;;;;;;26.45;13.02;;;-1.50;99.90;;;;;;4945207;28;20597;-52
2023/01/20 11:04:54;;;;;;;27.52;16.98;;;-1.50;99.90;;;;;;4942977;28;20054;-50
2023/01/20 11:07:20;;;;;;;28.63;16.80;;;-1.40;99.90;;;;;;4943388;28;20358;-52
2023/01/20 11:09:47;;;;;;;;;;;-1.30;99.90;;;;;;4946854;28;20068;-51
2023/01/20 11:12:29;;;;;;;36.30;18.00;;;-1.20;99.90;;;;;;4942047;28;20258;-51
2023/01/20 11:14:59;;;;;;;28.30;16.23;;;-1.00;99.90;;;;;;4959993;28;20434;-51
2023/01/20 11:17:26;;;;;;;29.45;16.52;;;-0.90;99.90;;;;;;4944390;28;20034;-51
2023/01/20 11:19:53;;;;;;;;;;;-0.80;99.90;;;;;;4946491;28;20061;-51
2023/01/20 11:22:35;;;;;;;34.67;18.55;;;-0.60;99.90;;;;;;4945331;28;19933;-51
2023/01/20 11:25:03;;;;;;;28.05;16.70;;;-0.40;99.90;;;;;;4944764;28;20265;-48
2023/01/20 11:27:50;;;;;;;33.25;17.50;;;-0.20;99.90;;;;;;4943108;28;20061;-49
2023/01/20 11:30:31;;;;;;;28.10;17.30;;;0.10;99.90;;;;;;4946448;28;20038;-50
2023/01/20 11:33:16;;;;;;;26.02;15.50;;;0.40;99.90;;;;;;4946056;28;20054;-49
2023/01/20 11:36:05;;;;;;;29.27;17.88;;;0.60;99.90;;;;;;4943657;28;20389;-51
2023/01/20 11:38:50;;;;;;;28.50;16.35;;;0.90;99.90;;;;;;4943979;28;20062;-52
2023/01/20 11:41:21;;;;;;;26.73;16.52;;;1.10;99.90;;;;;;4960331;28;20066;-50
2023/01/20 11:43:50;;;;;;;25.33;15.50;;;1.40;99.90;;;;;;4948803;28;20680;-51
2023/01/20 11:46:29;;;;;;;24.98;15.48;;;1.50;99.90;;;;;;4931457;28;20046;-51
2023/01/20 11:49:13;;;;;;;25.17;15.23;;;1.60;99.90;;;;;;4948624;28;20072;-52
2023/01/20 11:51:47;;;;;;;26.40;15.80;;;1.70;99.90;;;;;;4947773;28;20388;-50
2023/01/20 11:54:21;;;;;;;24.90;15.52;;;1.70;99.90;;;;;;4949938;28;20281;-53
2023/01/20 11:56:55;;;;;;;24.45;15.85;;;1.70;99.90;;;;;;4945847;28;20042;-51
2023/01/20 11:59:26;;;;;;;26.58;15.32;;;1.70;99.90;;;;;;4946340;28;20373;-52
2023/01/20 12:01:59;;;;;;;30.38;15.90;;;1.60;99.90;;;;;;4947265;28;20756;-50
2023/01/20 12:04:59;;;;;;;30.83;16.05;;;1.60;99.90;;;;;;4948290;28;20604;-53
2023/01/20 12:07:41;;;;;;;24.92;14.90;;;1.70;99.90;;;;;;4948175;28;20158;-52
2023/01/20 12:10:31;;;;;;;23.75;14.43;;;1.70;99.90;;;;;;4962286;28;20038;-52
2023/01/20 12:16:30;;;;;;;24.13;14.00;;;1.50;99.90;;;;;;4931242;28;20050;-52
2023/01/20 12:19:03;;;;;;;23.88;12.93;;;1.30;99.90;;;;;;4947914;28;20387;-49
2023/01/20 12:21:42;;;;;;;25.38;14.95;;;1.20;99.90;;;;;;4944544;28;20053;-51
2023/01/20 12:25:06;;;;;;;29.80;14.68;;;1.10;99.90;;;;;;4962010;28;20310;-50
2023/01/20 12:27:26;;;;;;;25.33;14.32;;;1.10;99.90;;;;;;4943270;28;21184;-51
2023/01/20 12:30:02;;;;;;;31.33;14.35;;;1.00;99.90;;;;;;4946698;28;20398;-48
2023/01/20 12:32:32;;;;;;;22.55;14.15;;;1.00;99.90;;;;;;4953612;28;20671;-51
2023/01/20 12:34:59;;;;;;;26.63;14.13;;;1.00;99.90;;;;;;4948267;28;20066;-49
2023/01/20 12:37:36;;;;;;;24.30;14.85;;;1.00;99.90;;;;;;4952358;28;20112;-51
2023/01/20 12:40:27;;;;;;;28.75;14.32;;;1.00;99.90;;;;;;4947707;28;20078;-58
2023/01/20 12:43:26;;;;;;;25.60;14.02;;;0.90;99.90;;;;;;4947865;28;20170;-59
2023/01/20 12:46:24;;;;;;;21.50;13.30;;;0.90;99.90;;;;;;4948190;28;20529;-56
2023/01/20 12:49:13;;;;;;;24.77;14.88;;;0.80;99.90;;;;;;4945332;28;21110;-53
2023/01/20 12:51:39;;;;;;;24.27;14.02;;;0.80;99.90;;;;;;4945689;28;20070;-52
2023/01/20 12:54:41;;;;;;;23.58;13.18;;;0.80;99.90;;;;;;4947842;28;20133;-50
2023/01/20 12:58:04;;;;;;;18.98;12.93;;;0.80;99.90;;;;;;4949712;28;20050;-51
2023/01/20 13:00:57;;;;;;;29.58;14.40;;;0.70;99.90;;;;;;4945017;28;20486;-50
2023/01/20 13:03:58;;;;;;;24.77;13.68;;;0.70;99.90;;;;;;4945663;28;20042;-55
2023/01/20 13:06:41;;;;;;;26.42;14.23;;;0.60;99.90;;;;;;4947741;28;20343;-56
2023/01/20 13:09:23;;;;;;;21.52;12.00;;;0.60;99.90;;;;;;4947451;28;20042;-53
2023/01/20 13:12:03;;;;;;;24.08;13.32;;;0.60;99.90;;;;;;4946069;28;20050;-53
2023/01/20 13:14:44;;;;;;;21.23;13.63;;;0.70;99.90;;;;;;4946670;28;20137;-52
2023/01/20 13:17:33;;;;;;;21.83;13.30;;;0.70;99.90;;;;;;4950281;28;20606;-50
2023/01/20 13:20:03;;;;;;;22.10;13.00;;;0.60;99.90;;;;;;4947212;28;20613;-55
2023/01/20 13:22:30;;;;;;;23.20;13.90;;;0.60;99.90;;;;;;4943835;28;20238;-57
2023/01/20 13:25:03;;;;;;;25.05;14.60;;;0.60;99.90;;;;;;4947108;28;20355;-50